sensor_id;sensor_type;location;lat;lon;timestamp;temperature;humidity
78475;SHT31;67766;51.964;5.660;2023-05-10T00:00:40;18.3;66.1
78475;SHT31;67766;51.964;5.660;2023-05-10T00:03:11;18.3;66.2
78475;SHT31;67766;51.964;5.660;2023-05-10T00:05:41;18.3;66.0
78475;SHT31;67766;51.964;5.660;2023-05-10T00:08:10;18.3;66.1
78475;SHT31;67766;51.964;5.660;2023-05-10T00:10:40;18.2;66.1
78475;SHT31;67766;51.964;5.660;2023-05-10T00:13:10;18.2;66.1
78475;SHT31;67766;51.964;5.660;2023-05-10T00:15:39;18.2;66.1
78475;SHT31;67766;51.964;5.660;2023-05-10T00:18:09;18.1;66.1
78475;SHT31;67766;51.964;5.660;2023-05-10T00:20:39;18.1;66.3
78475;SHT31;67766;51.964;5.660;2023-05-10T00:23:08;18.1;66.7
78475;SHT31;67766;51.964;5.660;2023-05-10T00:25:40;18.0;66.9
78475;SHT31;67766;51.964;5.660;2023-05-10T00:28:11;18.0;67.1
78475;SHT31;67766;51.964;5.660;2023-05-10T00:30:41;18.0;67.2
78475;SHT31;67766;51.964;5.660;2023-05-10T00:33:10;18.0;67.2
78475;SHT31;67766;51.964;5.660;2023-05-10T00:35:41;17.9;67.3
78475;SHT31;67766;51.964;5.660;2023-05-10T00:38:10;17.9;67.5
78475;SHT31;67766;51.964;5.660;2023-05-10T00:40:40;17.9;67.5
78475;SHT31;67766;51.964;5.660;2023-05-10T00:43:10;17.9;67.4
78475;SHT31;67766;51.964;5.660;2023-05-10T00:45:40;17.9;67.4
78475;SHT31;67766;51.964;5.660;2023-05-10T00:48:10;18.0;67.5
78475;SHT31;67766;51.964;5.660;2023-05-10T00:50:40;18.0;67.5
78475;SHT31;67766;51.964;5.660;2023-05-10T00:53:10;17.9;67.6
78475;SHT31;67766;51.964;5.660;2023-05-10T00:55:40;17.9;67.7
78475;SHT31;67766;51.964;5.660;2023-05-10T00:58:10;17.9;68.0
78475;SHT31;67766;51.964;5.660;2023-05-10T01:00:41;17.9;68.3
78475;SHT31;67766;51.964;5.660;2023-05-10T01:03:12;17.8;68.4
78475;SHT31;67766;51.964;5.660;2023-05-10T01:05:41;17.8;68.4
78475;SHT31;67766;51.964;5.660;2023-05-10T01:08:11;17.8;68.5
78475;SHT31;67766;51.964;5.660;2023-05-10T01:10:43;17.7;68.7
78475;SHT31;67766;51.964;5.660;2023-05-10T01:13:27;17.7;68.7
78475;SHT31;67766;51.964;5.660;2023-05-10T01:15:59;17.7;68.7
78475;SHT31;67766;51.964;5.660;2023-05-10T01:18:33;17.7;68.9
78475;SHT31;67766;51.964;5.660;2023-05-10T01:21:17;17.6;68.9
78475;SHT31;67766;51.964;5.660;2023-05-10T01:25:02;17.6;69.0
78475;SHT31;67766;51.964;5.660;2023-05-10T01:27:48;17.6;69.2
78475;SHT31;67766;51.964;5.660;2023-05-10T01:31:00;17.6;69.3
78475;SHT31;67766;51.964;5.660;2023-05-10T01:33:35;17.6;69.3
78475;SHT31;67766;51.964;5.660;2023-05-10T01:36:15;17.6;69.4
78475;SHT31;67766;51.964;5.660;2023-05-10T01:38:50;17.6;69.3
78475;SHT31;67766;51.964;5.660;2023-05-10T01:41:27;17.6;69.2
78475;SHT31;67766;51.964;5.660;2023-05-10T01:44:02;17.6;69.3
78475;SHT31;67766;51.964;5.660;2023-05-10T01:46:40;17.7;68.9
78475;SHT31;67766;51.964;5.660;2023-05-10T01:49:16;17.8;68.4
78475;SHT31;67766;51.964;5.660;2023-05-10T01:51:53;17.9;68.1
78475;SHT31;67766;51.964;5.660;2023-05-10T01:54:24;17.9;68.0
78475;SHT31;67766;51.964;5.660;2023-05-10T01:56:58;17.9;67.8
78475;SHT31;67766;51.964;5.660;2023-05-10T01:59:34;17.9;67.7
78475;SHT31;67766;51.964;5.660;2023-05-10T02:02:10;17.9;67.8
78475;SHT31;67766;51.964;5.660;2023-05-10T02:04:42;17.9;67.5
78475;SHT31;67766;51.964;5.660;2023-05-10T02:07:14;17.8;67.7
78475;SHT31;67766;51.964;5.660;2023-05-10T02:09:45;17.8;67.6
78475;SHT31;67766;51.964;5.660;2023-05-10T02:12:18;17.8;67.6
78475;SHT31;67766;51.964;5.660;2023-05-10T02:14:51;17.8;67.6
78475;SHT31;67766;51.964;5.660;2023-05-10T02:17:23;17.7;67.9
78475;SHT31;67766;51.964;5.660;2023-05-10T02:19:56;17.7;67.9
78475;SHT31;67766;51.964;5.660;2023-05-10T02:22:27;17.7;68.0
78475;SHT31;67766;51.964;5.660;2023-05-10T02:24:59;17.7;68.2
78475;SHT31;67766;51.964;5.660;2023-05-10T02:27:30;17.7;68.2
78475;SHT31;67766;51.964;5.660;2023-05-10T02:30:00;17.7;68.1
78475;SHT31;67766;51.964;5.660;2023-05-10T02:32:31;17.7;68.1
78475;SHT31;67766;51.964;5.660;2023-05-10T02:35:01;17.7;67.8
78475;SHT31;67766;51.964;5.660;2023-05-10T02:37:34;17.7;67.7
78475;SHT31;67766;51.964;5.660;2023-05-10T02:40:09;17.7;67.8
78475;SHT31;67766;51.964;5.660;2023-05-10T02:42:42;17.7;67.6
78475;SHT31;67766;51.964;5.660;2023-05-10T02:45:18;17.7;67.4
78475;SHT31;67766;51.964;5.660;2023-05-10T02:47:49;17.7;67.4
78475;SHT31;67766;51.964;5.660;2023-05-10T02:50:19;17.7;67.2
78475;SHT31;67766;51.964;5.660;2023-05-10T02:52:51;17.7;67.3
78475;SHT31;67766;51.964;5.660;2023-05-10T02:55:24;17.7;67.1
78475;SHT31;67766;51.964;5.660;2023-05-10T02:57:58;17.8;66.7
78475;SHT31;67766;51.964;5.660;2023-05-10T03:00:28;17.8;66.3
78475;SHT31;67766;51.964;5.660;2023-05-10T03:02:58;17.8;66.4
78475;SHT31;67766;51.964;5.660;2023-05-10T03:05:28;17.8;66.1
78475;SHT31;67766;51.964;5.660;2023-05-10T03:07:59;17.7;65.8
78475;SHT31;67766;51.964;5.660;2023-05-10T03:10:32;17.7;66.0
78475;SHT31;67766;51.964;5.660;2023-05-10T03:13:15;17.7;66.2
78475;SHT31;67766;51.964;5.660;2023-05-10T03:15:55;17.7;65.6
78475;SHT31;67766;51.964;5.660;2023-05-10T03:18:31;17.7;65.8
78475;SHT31;67766;51.964;5.660;2023-05-10T03:21:06;17.7;65.7
78475;SHT31;67766;51.964;5.660;2023-05-10T03:23:41;17.7;65.7
78475;SHT31;67766;51.964;5.660;2023-05-10T03:26:20;17.7;65.8
78475;SHT31;67766;51.964;5.660;2023-05-10T03:28:54;17.6;66.2
78475;SHT31;67766;51.964;5.660;2023-05-10T03:31:24;17.6;65.8
78475;SHT31;67766;51.964;5.660;2023-05-10T03:33:54;17.6;65.9
78475;SHT31;67766;51.964;5.660;2023-05-10T03:36:23;17.6;65.5
78475;SHT31;67766;51.964;5.660;2023-05-10T03:38:53;17.6;65.6
78475;SHT31;67766;51.964;5.660;2023-05-10T03:41:22;17.5;66.1
78475;SHT31;67766;51.964;5.660;2023-05-10T03:43:52;17.5;65.8
78475;SHT31;67766;51.964;5.660;2023-05-10T03:46:22;17.5;65.9
78475;SHT31;67766;51.964;5.660;2023-05-10T03:48:51;17.5;65.9
78475;SHT31;67766;51.964;5.660;2023-05-10T03:51:21;17.4;66.0
78475;SHT31;67766;51.964;5.660;2023-05-10T03:53:51;17.4;66.3
78475;SHT31;67766;51.964;5.660;2023-05-10T03:56:21;17.4;66.5
78475;SHT31;67766;51.964;5.660;2023-05-10T03:58:50;17.4;66.6
78475;SHT31;67766;51.964;5.660;2023-05-10T04:01:20;17.4;66.7
78475;SHT31;67766;51.964;5.660;2023-05-10T04:03:49;17.4;66.7
78475;SHT31;67766;51.964;5.660;2023-05-10T04:06:19;17.3;66.8
78475;SHT31;67766;51.964;5.660;2023-05-10T04:08:48;17.3;67.0
78475;SHT31;67766;51.964;5.660;2023-05-10T04:11:20;17.3;67.2
78475;SHT31;67766;51.964;5.660;2023-05-10T04:13:52;17.3;67.2
78475;SHT31;67766;51.964;5.660;2023-05-10T04:16:21;17.4;67.3
78475;SHT31;67766;51.964;5.660;2023-05-10T04:18:51;17.4;67.2
78475;SHT31;67766;51.964;5.660;2023-05-10T04:21:20;17.4;67.0
78475;SHT31;67766;51.964;5.660;2023-05-10T04:23:50;17.4;67.0
78475;SHT31;67766;51.964;5.660;2023-05-10T04:26:20;17.4;66.9
78475;SHT31;67766;51.964;5.660;2023-05-10T04:28:51;17.4;66.9
78475;SHT31;67766;51.964;5.660;2023-05-10T04:31:21;17.5;66.8
78475;SHT31;67766;51.964;5.660;2023-05-10T04:33:51;17.5;66.8
78475;SHT31;67766;51.964;5.660;2023-05-10T04:36:20;17.5;66.6
78475;SHT31;67766;51.964;5.660;2023-05-10T04:38:50;17.5;66.5
78475;SHT31;67766;51.964;5.660;2023-05-10T04:41:20;17.5;66.4
78475;SHT31;67766;51.964;5.660;2023-05-10T04:43:49;17.5;66.4
78475;SHT31;67766;51.964;5.660;2023-05-10T04:46:19;17.5;66.4
78475;SHT31;67766;51.964;5.660;2023-05-10T04:48:49;17.5;66.4
78475;SHT31;67766;51.964;5.660;2023-05-10T04:51:19;17.5;66.5
78475;SHT31;67766;51.964;5.660;2023-05-10T04:53:48;17.5;66.3
78475;SHT31;67766;51.964;5.660;2023-05-10T04:56:18;17.5;66.4
78475;SHT31;67766;51.964;5.660;2023-05-10T04:58:49;17.5;66.6
78475;SHT31;67766;51.964;5.660;2023-05-10T05:01:19;17.5;66.4
78475;SHT31;67766;51.964;5.660;2023-05-10T05:03:48;17.5;66.4
78475;SHT31;67766;51.964;5.660;2023-05-10T05:06:20;17.6;66.5
78475;SHT31;67766;51.964;5.660;2023-05-10T05:08:52;17.6;66.7
78475;SHT31;67766;51.964;5.660;2023-05-10T05:11:23;17.6;66.3
78475;SHT31;67766;51.964;5.660;2023-05-10T05:13:53;17.6;66.3
78475;SHT31;67766;51.964;5.660;2023-05-10T05:16:24;17.6;66.1
78475;SHT31;67766;51.964;5.660;2023-05-10T05:18:54;17.6;65.9
78475;SHT31;67766;51.964;5.660;2023-05-10T05:21:24;17.6;66.3
78475;SHT31;67766;51.964;5.660;2023-05-10T05:23:54;17.6;66.3
78475;SHT31;67766;51.964;5.660;2023-05-10T05:26:24;17.6;66.6
78475;SHT31;67766;51.964;5.660;2023-05-10T05:28:53;17.6;66.6
78475;SHT31;67766;51.964;5.660;2023-05-10T05:31:23;17.6;66.5
78475;SHT31;67766;51.964;5.660;2023-05-10T05:33:53;17.6;66.3
78475;SHT31;67766;51.964;5.660;2023-05-10T05:36:24;17.6;66.4
78475;SHT31;67766;51.964;5.660;2023-05-10T05:38:54;17.6;66.4
78475;SHT31;67766;51.964;5.660;2023-05-10T05:41:23;17.6;66.7
78475;SHT31;67766;51.964;5.660;2023-05-10T05:43:53;17.6;66.7
78475;SHT31;67766;51.964;5.660;2023-05-10T05:46:23;17.6;66.6
78475;SHT31;67766;51.964;5.660;2023-05-10T05:48:53;17.6;66.8
78475;SHT31;67766;51.964;5.660;2023-05-10T05:51:22;17.6;66.9
78475;SHT31;67766;51.964;5.660;2023-05-10T05:53:52;17.6;67.2
78475;SHT31;67766;51.964;5.660;2023-05-10T05:56:22;17.6;67.1
78475;SHT31;67766;51.964;5.660;2023-05-10T05:58:52;17.6;67.2
78475;SHT31;67766;51.964;5.660;2023-05-10T06:01:22;17.6;67.3
78475;SHT31;67766;51.964;5.660;2023-05-10T06:03:51;17.6;67.3
78475;SHT31;67766;51.964;5.660;2023-05-10T06:06:21;17.7;67.1
78475;SHT31;67766;51.964;5.660;2023-05-10T06:08:50;17.7;67.3
78475;SHT31;67766;51.964;5.660;2023-05-10T06:11:20;17.7;67.1
78475;SHT31;67766;51.964;5.660;2023-05-10T06:13:50;17.7;67.1
78475;SHT31;67766;51.964;5.660;2023-05-10T06:16:19;17.8;67.1
78475;SHT31;67766;51.964;5.660;2023-05-10T06:18:49;17.8;66.9
78475;SHT31;67766;51.964;5.660;2023-05-10T06:21:19;17.8;67.0
78475;SHT31;67766;51.964;5.660;2023-05-10T06:23:48;17.8;66.9
78475;SHT31;67766;51.964;5.660;2023-05-10T06:26:18;17.9;66.8
78475;SHT31;67766;51.964;5.660;2023-05-10T06:28:48;17.9;66.9
78475;SHT31;67766;51.964;5.660;2023-05-10T06:31:17;17.9;66.4
78475;SHT31;67766;51.964;5.660;2023-05-10T06:33:49;17.9;66.3
78475;SHT31;67766;51.964;5.660;2023-05-10T06:36:19;18.0;66.3
78475;SHT31;67766;51.964;5.660;2023-05-10T06:38:49;18.0;66.3
78475;SHT31;67766;51.964;5.660;2023-05-10T06:41:18;18.0;65.9
78475;SHT31;67766;51.964;5.660;2023-05-10T06:43:48;18.0;65.7
78475;SHT31;67766;51.964;5.660;2023-05-10T06:46:18;18.0;65.8
78475;SHT31;67766;51.964;5.660;2023-05-10T06:48:47;18.0;66.0
78475;SHT31;67766;51.964;5.660;2023-05-10T06:51:17;17.9;66.2
78475;SHT31;67766;51.964;5.660;2023-05-10T06:53:48;17.9;66.3
78475;SHT31;67766;51.964;5.660;2023-05-10T06:56:18;17.9;66.2
78475;SHT31;67766;51.964;5.660;2023-05-10T06:58:48;17.9;66.4
78475;SHT31;67766;51.964;5.660;2023-05-10T07:01:18;17.9;66.4
78475;SHT31;67766;51.964;5.660;2023-05-10T07:03:48;17.9;66.6
78475;SHT31;67766;51.964;5.660;2023-05-10T07:06:20;17.9;66.7
78475;SHT31;67766;51.964;5.660;2023-05-10T07:08:51;17.9;66.7
78475;SHT31;67766;51.964;5.660;2023-05-10T07:11:21;17.9;66.7
78475;SHT31;67766;51.964;5.660;2023-05-10T07:13:50;17.9;66.7
78475;SHT31;67766;51.964;5.660;2023-05-10T07:16:20;17.9;66.7
78475;SHT31;67766;51.964;5.660;2023-05-10T07:18:50;17.9;66.9
78475;SHT31;67766;51.964;5.660;2023-05-10T07:21:20;17.9;67.0
78475;SHT31;67766;51.964;5.660;2023-05-10T07:23:51;17.9;66.9
78475;SHT31;67766;51.964;5.660;2023-05-10T07:26:20;17.9;66.7
78475;SHT31;67766;51.964;5.660;2023-05-10T07:28:50;18.0;66.3
78475;SHT31;67766;51.964;5.660;2023-05-10T07:31:21;18.0;66.4
78475;SHT31;67766;51.964;5.660;2023-05-10T07:33:51;18.0;66.4
78475;SHT31;67766;51.964;5.660;2023-05-10T07:36:21;18.0;66.3
78475;SHT31;67766;51.964;5.660;2023-05-10T07:38:53;18.0;66.3
78475;SHT31;67766;51.964;5.660;2023-05-10T07:41:23;18.1;66.3
78475;SHT31;67766;51.964;5.660;2023-05-10T07:43:53;18.1;66.2
78475;SHT31;67766;51.964;5.660;2023-05-10T07:46:22;18.1;66.5
78475;SHT31;67766;51.964;5.660;2023-05-10T07:48:52;18.2;66.4
78475;SHT31;67766;51.964;5.660;2023-05-10T07:51:22;18.2;66.1
78475;SHT31;67766;51.964;5.660;2023-05-10T07:53:51;18.3;65.2
78475;SHT31;67766;51.964;5.660;2023-05-10T07:56:23;18.3;64.6
78475;SHT31;67766;51.964;5.660;2023-05-10T07:58:57;18.3;64.1
78475;SHT31;67766;51.964;5.660;2023-05-10T08:01:30;18.4;63.9
78475;SHT31;67766;51.964;5.660;2023-05-10T08:04:01;18.4;63.8
78475;SHT31;67766;51.964;5.660;2023-05-10T08:06:31;18.4;63.8
78475;SHT31;67766;51.964;5.660;2023-05-10T08:09:02;18.4;63.5
78475;SHT31;67766;51.964;5.660;2023-05-10T08:11:32;18.4;62.7
78475;SHT31;67766;51.964;5.660;2023-05-10T08:14:02;18.4;62.5
78475;SHT31;67766;51.964;5.660;2023-05-10T08:16:34;18.5;62.3
78475;SHT31;67766;51.964;5.660;2023-05-10T08:19:03;18.5;62.3
78475;SHT31;67766;51.964;5.660;2023-05-10T08:21:33;18.5;62.1
78475;SHT31;67766;51.964;5.660;2023-05-10T08:24:03;18.5;61.6
78475;SHT31;67766;51.964;5.660;2023-05-10T08:26:36;18.6;61.6
78475;SHT31;67766;51.964;5.660;2023-05-10T08:29:06;18.6;61.1
78475;SHT31;67766;51.964;5.660;2023-05-10T08:31:36;18.6;61.5
78475;SHT31;67766;51.964;5.660;2023-05-10T08:34:05;18.7;61.3
78475;SHT31;67766;51.964;5.660;2023-05-10T08:36:35;18.7;60.6
78475;SHT31;67766;51.964;5.660;2023-05-10T08:39:05;18.8;60.0
78475;SHT31;67766;51.964;5.660;2023-05-10T08:41:39;18.8;59.6
78475;SHT31;67766;51.964;5.660;2023-05-10T08:44:09;18.8;59.8
78475;SHT31;67766;51.964;5.660;2023-05-10T08:46:41;18.9;59.8
78475;SHT31;67766;51.964;5.660;2023-05-10T08:49:13;18.9;59.1
78475;SHT31;67766;51.964;5.660;2023-05-10T08:51:51;18.9;59.0
78475;SHT31;67766;51.964;5.660;2023-05-10T08:54:21;19.0;58.3
78475;SHT31;67766;51.964;5.660;2023-05-10T08:56:51;19.0;58.0
78475;SHT31;67766;51.964;5.660;2023-05-10T08:59:22;19.0;58.3
78475;SHT31;67766;51.964;5.660;2023-05-10T09:01:54;19.1;58.3
78475;SHT31;67766;51.964;5.660;2023-05-10T09:04:25;19.1;58.4
78475;SHT31;67766;51.964;5.660;2023-05-10T09:06:55;19.2;58.7
78475;SHT31;67766;51.964;5.660;2023-05-10T09:09:25;19.2;58.6
78475;SHT31;67766;51.964;5.660;2023-05-10T09:11:55;19.3;58.0
78475;SHT31;67766;51.964;5.660;2023-05-10T09:14:25;19.4;57.8
78475;SHT31;67766;51.964;5.660;2023-05-10T09:16:56;19.4;57.8
78475;SHT31;67766;51.964;5.660;2023-05-10T09:19:25;19.5;57.5
78475;SHT31;67766;51.964;5.660;2023-05-10T09:21:57;19.5;57.3
78475;SHT31;67766;51.964;5.660;2023-05-10T09:24:29;19.5;57.4
78475;SHT31;67766;51.964;5.660;2023-05-10T09:26:59;19.6;57.6
78475;SHT31;67766;51.964;5.660;2023-05-10T09:29:42;19.6;57.5
78475;SHT31;67766;51.964;5.660;2023-05-10T09:32:14;19.6;56.9
78475;SHT31;67766;51.964;5.660;2023-05-10T09:34:44;19.6;56.9
78475;SHT31;67766;51.964;5.660;2023-05-10T09:37:13;19.7;56.8
78475;SHT31;67766;51.964;5.660;2023-05-10T09:39:43;19.7;55.9
78475;SHT31;67766;51.964;5.660;2023-05-10T09:42:12;19.7;56.3
78475;SHT31;67766;51.964;5.660;2023-05-10T09:44:42;19.7;56.6
78475;SHT31;67766;51.964;5.660;2023-05-10T09:47:16;19.7;56.4
78475;SHT31;67766;51.964;5.660;2023-05-10T09:49:49;19.7;56.1
78475;SHT31;67766;51.964;5.660;2023-05-10T09:52:18;19.7;56.3
78475;SHT31;67766;51.964;5.660;2023-05-10T09:54:53;19.8;56.4
78475;SHT31;67766;51.964;5.660;2023-05-10T09:57:24;19.8;56.4
78475;SHT31;67766;51.964;5.660;2023-05-10T09:59:55;19.8;56.2
78475;SHT31;67766;51.964;5.660;2023-05-10T10:02:31;19.8;56.7
78475;SHT31;67766;51.964;5.660;2023-05-10T10:05:02;19.8;57.0
78475;SHT31;67766;51.964;5.660;2023-05-10T10:07:32;19.8;56.9
78475;SHT31;67766;51.964;5.660;2023-05-10T10:10:06;19.8;57.1
78475;SHT31;67766;51.964;5.660;2023-05-10T10:12:39;19.8;56.6
78475;SHT31;67766;51.964;5.660;2023-05-10T10:15:10;19.9;56.4
78475;SHT31;67766;51.964;5.660;2023-05-10T10:17:41;19.9;56.9
78475;SHT31;67766;51.964;5.660;2023-05-10T10:20:12;19.9;56.2
78475;SHT31;67766;51.964;5.660;2023-05-10T10:22:42;20.0;56.3
78475;SHT31;67766;51.964;5.660;2023-05-10T10:25:15;20.0;56.2
78475;SHT31;67766;51.964;5.660;2023-05-10T10:27:58;20.0;55.4
78475;SHT31;67766;51.964;5.660;2023-05-10T10:30:39;20.1;55.9
78475;SHT31;67766;51.964;5.660;2023-05-10T10:35:25;20.1;55.9
78475;SHT31;67766;51.964;5.660;2023-05-10T10:37:55;20.1;55.6
78475;SHT31;67766;51.964;5.660;2023-05-10T10:40:30;20.2;54.6
78475;SHT31;67766;51.964;5.660;2023-05-10T10:43:25;20.2;55.0
78475;SHT31;67766;51.964;5.660;2023-05-10T10:46:14;20.2;55.4
78475;SHT31;67766;51.964;5.660;2023-05-10T10:48:50;20.2;55.3
78475;SHT31;67766;51.964;5.660;2023-05-10T10:51:20;20.2;55.5
78475;SHT31;67766;51.964;5.660;2023-05-10T10:53:50;20.2;55.9
78475;SHT31;67766;51.964;5.660;2023-05-10T10:56:24;20.3;55.2
78475;SHT31;67766;51.964;5.660;2023-05-10T10:59:00;20.3;54.6
78475;SHT31;67766;51.964;5.660;2023-05-10T11:01:33;20.3;55.0
78475;SHT31;67766;51.964;5.660;2023-05-10T11:04:21;20.3;55.1
78475;SHT31;67766;51.964;5.660;2023-05-10T11:07:17;20.3;54.7
78475;SHT31;67766;51.964;5.660;2023-05-10T11:09:48;20.3;55.2
78475;SHT31;67766;51.964;5.660;2023-05-10T11:12:19;20.4;55.3
78475;SHT31;67766;51.964;5.660;2023-05-10T11:14:51;20.4;55.2
78475;SHT31;67766;51.964;5.660;2023-05-10T11:17:25;20.4;55.6
78475;SHT31;67766;51.964;5.660;2023-05-10T11:20:09;20.4;55.3
78475;SHT31;67766;51.964;5.660;2023-05-10T11:22:51;20.4;55.3
78475;SHT31;67766;51.964;5.660;2023-05-10T11:25:26;20.5;55.5
78475;SHT31;67766;51.964;5.660;2023-05-10T11:27:56;20.5;55.2
78475;SHT31;67766;51.964;5.660;2023-05-10T11:30:26;20.5;55.1
78475;SHT31;67766;51.964;5.660;2023-05-10T11:32:55;20.5;55.0
78475;SHT31;67766;51.964;5.660;2023-05-10T11:35:27;20.6;55.0
78475;SHT31;67766;51.964;5.660;2023-05-10T11:37:57;20.6;55.1
78475;SHT31;67766;51.964;5.660;2023-05-10T11:40:27;20.7;54.4
78475;SHT31;67766;51.964;5.660;2023-05-10T11:42:59;20.7;54.5
78475;SHT31;67766;51.964;5.660;2023-05-10T11:45:29;20.8;54.3
78475;SHT31;67766;51.964;5.660;2023-05-10T11:48:02;20.8;54.1
78475;SHT31;67766;51.964;5.660;2023-05-10T11:50:32;20.9;52.6
78475;SHT31;67766;51.964;5.660;2023-05-10T11:53:02;20.9;53.5
78475;SHT31;67766;51.964;5.660;2023-05-10T11:55:33;21.0;54.2
78475;SHT31;67766;51.964;5.660;2023-05-10T11:58:02;21.1;53.9
78475;SHT31;67766;51.964;5.660;2023-05-10T12:00:32;21.1;53.8
78475;SHT31;67766;51.964;5.660;2023-05-10T12:03:03;21.2;53.8
78475;SHT31;67766;51.964;5.660;2023-05-10T12:05:34;21.3;53.0
78475;SHT31;67766;51.964;5.660;2023-05-10T12:08:15;21.3;53.9
78475;SHT31;67766;51.964;5.660;2023-05-10T12:10:49;21.4;53.6
78475;SHT31;67766;51.964;5.660;2023-05-10T12:13:19;21.4;52.3
78475;SHT31;67766;51.964;5.660;2023-05-10T12:15:50;21.5;52.1
78475;SHT31;67766;51.964;5.660;2023-05-10T12:18:23;21.5;51.2
78475;SHT31;67766;51.964;5.660;2023-05-10T12:20:54;21.5;52.5
78475;SHT31;67766;51.964;5.660;2023-05-10T12:23:23;21.5;52.5
78475;SHT31;67766;51.964;5.660;2023-05-10T12:25:53;21.6;51.5
78475;SHT31;67766;51.964;5.660;2023-05-10T12:28:22;21.6;51.7
78475;SHT31;67766;51.964;5.660;2023-05-10T12:30:53;21.6;52.4
78475;SHT31;67766;51.964;5.660;2023-05-10T12:33:23;21.7;52.7
78475;SHT31;67766;51.964;5.660;2023-05-10T12:35:54;21.7;51.1
78475;SHT31;67766;51.964;5.660;2023-05-10T12:38:29;21.7;51.9
78475;SHT31;67766;51.964;5.660;2023-05-10T12:41:01;21.8;50.6
78475;SHT31;67766;51.964;5.660;2023-05-10T12:43:32;21.8;51.1
78475;SHT31;67766;51.964;5.660;2023-05-10T12:46:06;21.8;51.0
78475;SHT31;67766;51.964;5.660;2023-05-10T12:48:37;21.8;51.7
78475;SHT31;67766;51.964;5.660;2023-05-10T12:51:08;21.8;51.1
78475;SHT31;67766;51.964;5.660;2023-05-10T12:53:40;21.8;49.9
78475;SHT31;67766;51.964;5.660;2023-05-10T12:56:10;21.8;50.1
78475;SHT31;67766;51.964;5.660;2023-05-10T12:58:39;21.8;50.5
78475;SHT31;67766;51.964;5.660;2023-05-10T13:01:14;21.8;51.0
78475;SHT31;67766;51.964;5.660;2023-05-10T13:03:44;21.7;51.5
78475;SHT31;67766;51.964;5.660;2023-05-10T13:06:14;21.5;52.2
78475;SHT31;67766;51.964;5.660;2023-05-10T13:08:43;21.3;52.4
78475;SHT31;67766;51.964;5.660;2023-05-10T13:11:13;21.2;53.0
78475;SHT31;67766;51.964;5.660;2023-05-10T13:13:44;21.1;53.2
78475;SHT31;67766;51.964;5.660;2023-05-10T13:16:14;21.1;53.7
78475;SHT31;67766;51.964;5.660;2023-05-10T13:18:43;21.0;53.8
78475;SHT31;67766;51.964;5.660;2023-05-10T13:21:13;21.0;54.0
78475;SHT31;67766;51.964;5.660;2023-05-10T13:23:43;20.9;54.3
78475;SHT31;67766;51.964;5.660;2023-05-10T13:26:14;20.8;54.8
78475;SHT31;67766;51.964;5.660;2023-05-10T13:28:43;20.8;55.5
78475;SHT31;67766;51.964;5.660;2023-05-10T13:31:13;20.8;56.0
78475;SHT31;67766;51.964;5.660;2023-05-10T13:33:43;20.7;55.5
78475;SHT31;67766;51.964;5.660;2023-05-10T13:36:12;20.7;55.7
78475;SHT31;67766;51.964;5.660;2023-05-10T13:38:42;20.7;56.0
78475;SHT31;67766;51.964;5.660;2023-05-10T13:41:13;20.7;56.3
78475;SHT31;67766;51.964;5.660;2023-05-10T13:43:43;20.7;57.2
78475;SHT31;67766;51.964;5.660;2023-05-10T13:46:13;20.7;57.7
78475;SHT31;67766;51.964;5.660;2023-05-10T13:48:42;20.8;57.7
78475;SHT31;67766;51.964;5.660;2023-05-10T13:51:12;20.8;58.0
78475;SHT31;67766;51.964;5.660;2023-05-10T13:53:42;20.8;58.4
78475;SHT31;67766;51.964;5.660;2023-05-10T13:56:11;20.8;58.7
78475;SHT31;67766;51.964;5.660;2023-05-10T13:58:41;20.8;59.1
78475;SHT31;67766;51.964;5.660;2023-05-10T14:01:12;20.8;58.5
78475;SHT31;67766;51.964;5.660;2023-05-10T14:03:42;20.8;58.1
78475;SHT31;67766;51.964;5.660;2023-05-10T14:06:14;20.8;57.5
78475;SHT31;67766;51.964;5.660;2023-05-10T14:08:43;20.8;57.4
78475;SHT31;67766;51.964;5.660;2023-05-10T14:11:13;20.8;57.4
78475;SHT31;67766;51.964;5.660;2023-05-10T14:13:43;20.8;57.5
78475;SHT31;67766;51.964;5.660;2023-05-10T14:16:12;20.8;57.9
78475;SHT31;67766;51.964;5.660;2023-05-10T14:18:42;20.8;58.1
78475;SHT31;67766;51.964;5.660;2023-05-10T14:21:12;20.8;58.0
78475;SHT31;67766;51.964;5.660;2023-05-10T14:23:42;20.7;58.0
78475;SHT31;67766;51.964;5.660;2023-05-10T14:26:12;20.7;57.9
78475;SHT31;67766;51.964;5.660;2023-05-10T14:28:41;20.7;58.0
78475;SHT31;67766;51.964;5.660;2023-05-10T14:31:11;20.7;58.0
78475;SHT31;67766;51.964;5.660;2023-05-10T14:33:41;20.7;58.1
78475;SHT31;67766;51.964;5.660;2023-05-10T14:36:11;20.7;58.1
78475;SHT31;67766;51.964;5.660;2023-05-10T14:38:41;20.8;58.1
78475;SHT31;67766;51.964;5.660;2023-05-10T14:41:10;20.8;58.0
78475;SHT31;67766;51.964;5.660;2023-05-10T14:43:42;20.8;57.6
78475;SHT31;67766;51.964;5.660;2023-05-10T14:46:12;20.8;57.5
78475;SHT31;67766;51.964;5.660;2023-05-10T14:48:41;20.8;57.3
78475;SHT31;67766;51.964;5.660;2023-05-10T14:51:11;20.8;57.2
78475;SHT31;67766;51.964;5.660;2023-05-10T14:53:40;20.9;57.0
78475;SHT31;67766;51.964;5.660;2023-05-10T14:56:12;20.9;56.9
78475;SHT31;67766;51.964;5.660;2023-05-10T14:58:42;20.9;57.1
78475;SHT31;67766;51.964;5.660;2023-05-10T15:01:11;20.9;57.6
78475;SHT31;67766;51.964;5.660;2023-05-10T15:03:41;21.0;57.7
78475;SHT31;67766;51.964;5.660;2023-05-10T15:06:10;21.0;57.4
78475;SHT31;67766;51.964;5.660;2023-05-10T15:08:40;21.0;57.3
78475;SHT31;67766;51.964;5.660;2023-05-10T15:11:10;21.0;57.1
78475;SHT31;67766;51.964;5.660;2023-05-10T15:13:40;21.0;57.2
78475;SHT31;67766;51.964;5.660;2023-05-10T15:16:10;21.1;57.5
78475;SHT31;67766;51.964;5.660;2023-05-10T15:18:39;21.1;57.3
78475;SHT31;67766;51.964;5.660;2023-05-10T15:21:12;21.1;56.5
78475;SHT31;67766;51.964;5.660;2023-05-10T15:23:42;21.1;57.1
78475;SHT31;67766;51.964;5.660;2023-05-10T15:26:11;21.1;57.1
78475;SHT31;67766;51.964;5.660;2023-05-10T15:28:41;21.1;56.6
78475;SHT31;67766;51.964;5.660;2023-05-10T15:31:11;21.1;56.5
78475;SHT31;67766;51.964;5.660;2023-05-10T15:33:40;21.1;56.6
78475;SHT31;67766;51.964;5.660;2023-05-10T15:36:10;21.1;56.6
78475;SHT31;67766;51.964;5.660;2023-05-10T15:38:40;21.1;56.7
78475;SHT31;67766;51.964;5.660;2023-05-10T15:41:09;21.2;56.8
78475;SHT31;67766;51.964;5.660;2023-05-10T15:43:39;21.2;56.4
78475;SHT31;67766;51.964;5.660;2023-05-10T15:46:09;21.2;56.0
78475;SHT31;67766;51.964;5.660;2023-05-10T15:48:38;21.2;56.0
78475;SHT31;67766;51.964;5.660;2023-05-10T15:51:08;21.2;55.9
78475;SHT31;67766;51.964;5.660;2023-05-10T15:53:38;21.2;55.6
78475;SHT31;67766;51.964;5.660;2023-05-10T15:56:08;21.2;55.8
78475;SHT31;67766;51.964;5.660;2023-05-10T15:58:40;21.2;55.7
78475;SHT31;67766;51.964;5.660;2023-05-10T16:01:11;21.2;55.6
78475;SHT31;67766;51.964;5.660;2023-05-10T16:03:41;21.2;55.8
78475;SHT31;67766;51.964;5.660;2023-05-10T16:06:11;21.2;55.5
78475;SHT31;67766;51.964;5.660;2023-05-10T16:08:40;21.2;55.6
78475;SHT31;67766;51.964;5.660;2023-05-10T16:11:10;21.2;55.8
78475;SHT31;67766;51.964;5.660;2023-05-10T16:13:40;21.2;55.5
78475;SHT31;67766;51.964;5.660;2023-05-10T16:16:09;21.3;55.4
78475;SHT31;67766;51.964;5.660;2023-05-10T16:18:39;21.3;55.2
78475;SHT31;67766;51.964;5.660;2023-05-10T16:21:08;21.3;55.3
78475;SHT31;67766;51.964;5.660;2023-05-10T16:23:38;21.3;55.2
78475;SHT31;67766;51.964;5.660;2023-05-10T16:26:08;21.3;55.2
78475;SHT31;67766;51.964;5.660;2023-05-10T16:28:38;21.3;55.5
78475;SHT31;67766;51.964;5.660;2023-05-10T16:31:10;21.3;55.9